sensor_id;sensor_type;location;lat;lon;timestamp;temperature;humidity
31991;DHT22;18508;49.386;8.370;2023-07-13T00:01:14;19.40;46.90
31991;DHT22;18508;49.386;8.370;2023-07-13T00:03:47;19.40;99.90
31991;DHT22;18508;49.386;8.370;2023-07-13T00:06:16;19.30;99.90
31991;DHT22;18508;49.386;8.370;2023-07-13T00:08:44;19.30;99.90
31991;DHT22;18508;49.386;8.370;2023-07-13T00:11:14;19.30;99.90
31991;DHT22;18508;49.386;8.370;2023-07-13T00:13:44;19.20;99.90
31991;DHT22;18508;49.386;8.370;2023-07-13T00:16:13;19.20;99.90
31991;DHT22;18508;49.386;8.370;2023-07-13T00:18:41;19.20;99.90
31991;DHT22;18508;49.386;8.370;2023-07-13T00:21:10;19.20;99.90
31991;DHT22;18508;49.386;8.370;2023-07-13T00:23:40;19.10;1.00
31991;DHT22;18508;49.386;8.370;2023-07-13T00:26:10;19.00;1.00
31991;DHT22;18508;49.386;8.370;2023-07-13T00:28:40;19.00;1.00
31991;DHT22;18508;49.386;8.370;2023-07-13T00:31:11;18.90;1.00
31991;DHT22;18508;49.386;8.370;2023-07-13T00:33:42;18.90;1.00
31991;DHT22;18508;49.386;8.370;2023-07-13T00:36:10;18.90;28.30
31991;DHT22;18508;49.386;8.370;2023-07-13T00:38:39;18.80;70.40
31991;DHT22;18508;49.386;8.370;2023-07-13T00:41:10;18.80;95.80
31991;DHT22;18508;49.386;8.370;2023-07-13T00:43:38;18.70;99.90
31991;DHT22;18508;49.386;8.370;2023-07-13T00:46:22;18.70;99.90
31991;DHT22;18508;49.386;8.370;2023-07-13T00:48:56;18.60;99.90
31991;DHT22;18508;49.386;8.370;2023-07-13T00:51:33;18.60;99.90
31991;DHT22;18508;49.386;8.370;2023-07-13T00:54:06;18.60;99.90
31991;DHT22;18508;49.386;8.370;2023-07-13T00:56:39;18.60;99.90
31991;DHT22;18508;49.386;8.370;2023-07-13T00:59:08;18.50;99.90
31991;DHT22;18508;49.386;8.370;2023-07-13T01:01:40;18.60;99.90
31991;DHT22;18508;49.386;8.370;2023-07-13T01:04:09;18.50;99.90
31991;DHT22;18508;49.386;8.370;2023-07-13T01:06:43;18.50;99.90
31991;DHT22;18508;49.386;8.370;2023-07-13T01:09:15;18.50;99.90
31991;DHT22;18508;49.386;8.370;2023-07-13T01:11:44;18.40;99.90
31991;DHT22;18508;49.386;8.370;2023-07-13T01:14:13;18.40;99.90
31991;DHT22;18508;49.386;8.370;2023-07-13T01:16:46;18.40;99.90
31991;DHT22;18508;49.386;8.370;2023-07-13T01:19:23;18.30;99.90
31991;DHT22;18508;49.386;8.370;2023-07-13T01:21:58;18.20;99.90
31991;DHT22;18508;49.386;8.370;2023-07-13T01:24:26;18.20;99.90
31991;DHT22;18508;49.386;8.370;2023-07-13T01:26:55;18.20;99.90
31991;DHT22;18508;49.386;8.370;2023-07-13T01:29:25;18.10;99.90
31991;DHT22;18508;49.386;8.370;2023-07-13T01:31:53;18.10;99.90
31991;DHT22;18508;49.386;8.370;2023-07-13T01:34:21;18.00;99.90
31991;DHT22;18508;49.386;8.370;2023-07-13T01:36:50;18.00;99.90
31991;DHT22;18508;49.386;8.370;2023-07-13T01:39:23;18.00;1.00
31991;DHT22;18508;49.386;8.370;2023-07-13T01:41:51;17.90;1.00
31991;DHT22;18508;49.386;8.370;2023-07-13T01:44:20;17.90;1.00
31991;DHT22;18508;49.386;8.370;2023-07-13T01:46:49;17.80;1.00
31991;DHT22;18508;49.386;8.370;2023-07-13T01:49:19;17.70;1.00
31991;DHT22;18508;49.386;8.370;2023-07-13T01:51:48;17.70;1.00
31991;DHT22;18508;49.386;8.370;2023-07-13T01:54:16;17.60;1.00
31991;DHT22;18508;49.386;8.370;2023-07-13T01:56:49;17.50;99.90
31991;DHT22;18508;49.386;8.370;2023-07-13T01:59:17;17.40;94.00
31991;DHT22;18508;49.386;8.370;2023-07-13T02:01:45;17.30;99.90
31991;DHT22;18508;49.386;8.370;2023-07-13T02:04:14;17.30;99.90
31991;DHT22;18508;49.386;8.370;2023-07-13T02:06:42;17.20;99.90
31991;DHT22;18508;49.386;8.370;2023-07-13T02:09:10;17.20;99.90
31991;DHT22;18508;49.386;8.370;2023-07-13T02:11:39;17.10;99.90
31991;DHT22;18508;49.386;8.370;2023-07-13T02:14:10;17.00;99.90
31991;DHT22;18508;49.386;8.370;2023-07-13T02:16:44;17.00;99.90
31991;DHT22;18508;49.386;8.370;2023-07-13T02:19:14;17.00;99.90
31991;DHT22;18508;49.386;8.370;2023-07-13T02:21:43;17.00;99.90
31991;DHT22;18508;49.386;8.370;2023-07-13T02:24:11;16.90;99.90
31991;DHT22;18508;49.386;8.370;2023-07-13T02:26:44;16.90;99.90
31991;DHT22;18508;49.386;8.370;2023-07-13T02:29:14;16.90;99.90
31991;DHT22;18508;49.386;8.370;2023-07-13T02:31:43;16.90;99.90
31991;DHT22;18508;49.386;8.370;2023-07-13T02:34:12;16.80;99.90
31991;DHT22;18508;49.386;8.370;2023-07-13T02:36:42;16.80;99.90
31991;DHT22;18508;49.386;8.370;2023-07-13T02:39:12;16.70;99.90
31991;DHT22;18508;49.386;8.370;2023-07-13T02:41:41;16.80;99.90
31991;DHT22;18508;49.386;8.370;2023-07-13T02:44:09;16.70;99.90
31991;DHT22;18508;49.386;8.370;2023-07-13T02:46:46;16.70;99.90
31991;DHT22;18508;49.386;8.370;2023-07-13T02:49:14;16.60;99.90
31991;DHT22;18508;49.386;8.370;2023-07-13T02:51:43;16.60;99.90
31991;DHT22;18508;49.386;8.370;2023-07-13T02:54:11;16.60;99.90
31991;DHT22;18508;49.386;8.370;2023-07-13T02:56:40;16.50;99.90
31991;DHT22;18508;49.386;8.370;2023-07-13T02:59:10;16.50;99.90
31991;DHT22;18508;49.386;8.370;2023-07-13T03:01:39;16.50;1.00
31991;DHT22;18508;49.386;8.370;2023-07-13T03:04:11;16.40;1.00
31991;DHT22;18508;49.386;8.370;2023-07-13T03:06:39;16.40;1.00
31991;DHT22;18508;49.386;8.370;2023-07-13T03:09:07;16.30;1.00
31991;DHT22;18508;49.386;8.370;2023-07-13T03:11:36;16.20;1.00
31991;DHT22;18508;49.386;8.370;2023-07-13T03:14:04;16.20;1.00
31991;DHT22;18508;49.386;8.370;2023-07-13T03:16:32;16.20;1.00
31991;DHT22;18508;49.386;8.370;2023-07-13T03:19:02;16.10;1.00
31991;DHT22;18508;49.386;8.370;2023-07-13T03:21:35;16.10;1.00
31991;DHT22;18508;49.386;8.370;2023-07-13T03:24:05;16.00;1.00
31991;DHT22;18508;49.386;8.370;2023-07-13T03:26:33;16.10;1.00
31991;DHT22;18508;49.386;8.370;2023-07-13T03:29:02;16.10;1.00
31991;DHT22;18508;49.386;8.370;2023-07-13T03:31:33;16.10;1.00
31991;DHT22;18508;49.386;8.370;2023-07-13T03:34:06;16.00;1.00
31991;DHT22;18508;49.386;8.370;2023-07-13T03:36:36;16.10;1.00
31991;DHT22;18508;49.386;8.370;2023-07-13T03:39:05;16.00;1.00
31991;DHT22;18508;49.386;8.370;2023-07-13T03:41:37;16.00;1.00
31991;DHT22;18508;49.386;8.370;2023-07-13T03:44:05;16.00;1.00
31991;DHT22;18508;49.386;8.370;2023-07-13T03:46:34;16.00;1.00
31991;DHT22;18508;49.386;8.370;2023-07-13T03:49:04;16.00;1.00
31991;DHT22;18508;49.386;8.370;2023-07-13T03:51:32;15.90;1.00
31991;DHT22;18508;49.386;8.370;2023-07-13T03:54:03;16.00;1.00
31991;DHT22;18508;49.386;8.370;2023-07-13T03:56:32;15.90;1.00
31991;DHT22;18508;49.386;8.370;2023-07-13T03:59:00;16.00;1.00
31991;DHT22;18508;49.386;8.370;2023-07-13T04:01:29;16.00;1.00
31991;DHT22;18508;49.386;8.370;2023-07-13T04:03:58;16.00;1.00
31991;DHT22;18508;49.386;8.370;2023-07-13T04:06:31;16.00;1.00
31991;DHT22;18508;49.386;8.370;2023-07-13T04:09:05;16.00;1.00
31991;DHT22;18508;49.386;8.370;2023-07-13T04:11:35;16.00;1.00
31991;DHT22;18508;49.386;8.370;2023-07-13T04:14:04;16.00;1.00
31991;DHT22;18508;49.386;8.370;2023-07-13T04:16:32;16.00;1.00
31991;DHT22;18508;49.386;8.370;2023-07-13T04:19:01;16.00;1.00
31991;DHT22;18508;49.386;8.370;2023-07-13T04:21:30;16.00;1.00
31991;DHT22;18508;49.386;8.370;2023-07-13T04:23:59;16.10;1.00
31991;DHT22;18508;49.386;8.370;2023-07-13T04:26:32;16.10;1.00
31991;DHT22;18508;49.386;8.370;2023-07-13T04:29:04;16.10;1.00
31991;DHT22;18508;49.386;8.370;2023-07-13T04:31:33;16.20;1.00
31991;DHT22;18508;49.386;8.370;2023-07-13T04:34:02;16.30;1.00
31991;DHT22;18508;49.386;8.370;2023-07-13T04:36:32;16.30;1.00
31991;DHT22;18508;49.386;8.370;2023-07-13T04:39:04;16.40;1.00
31991;DHT22;18508;49.386;8.370;2023-07-13T04:41:37;16.50;1.00
31991;DHT22;18508;49.386;8.370;2023-07-13T04:44:05;16.50;1.00
31991;DHT22;18508;49.386;8.370;2023-07-13T04:46:33;16.60;1.00
31991;DHT22;18508;49.386;8.370;2023-07-13T04:49:01;16.60;1.00
31991;DHT22;18508;49.386;8.370;2023-07-13T04:51:30;16.60;1.00
31991;DHT22;18508;49.386;8.370;2023-07-13T04:53:58;16.60;1.00
31991;DHT22;18508;49.386;8.370;2023-07-13T04:56:27;16.60;1.00
31991;DHT22;18508;49.386;8.370;2023-07-13T04:58:58;16.50;1.00
31991;DHT22;18508;49.386;8.370;2023-07-13T05:01:26;16.50;1.00
31991;DHT22;18508;49.386;8.370;2023-07-13T05:03:56;16.50;1.00
31991;DHT22;18508;49.386;8.370;2023-07-13T05:06:26;16.50;1.00
31991;DHT22;18508;49.386;8.370;2023-07-13T05:11:23;16.60;1.00
31991;DHT22;18508;49.386;8.370;2023-07-13T05:13:52;16.60;1.00
31991;DHT22;18508;49.386;8.370;2023-07-13T05:16:22;16.60;1.00
31991;DHT22;18508;49.386;8.370;2023-07-13T05:18:50;16.60;1.00
31991;DHT22;18508;49.386;8.370;2023-07-13T05:21:18;16.60;1.00
31991;DHT22;18508;49.386;8.370;2023-07-13T05:26:16;16.60;1.00
31991;DHT22;18508;49.386;8.370;2023-07-13T05:28:44;16.60;1.00
31991;DHT22;18508;49.386;8.370;2023-07-13T05:31:13;16.60;1.00
31991;DHT22;18508;49.386;8.370;2023-07-13T05:33:43;16.70;1.00
31991;DHT22;18508;49.386;8.370;2023-07-13T05:36:11;16.80;1.00
31991;DHT22;18508;49.386;8.370;2023-07-13T05:38:39;17.20;1.00
31991;DHT22;18508;49.386;8.370;2023-07-13T05:41:07;17.00;1.00
31991;DHT22;18508;49.386;8.370;2023-07-13T05:46:05;17.30;99.90
31991;DHT22;18508;49.386;8.370;2023-07-13T05:48:33;17.40;99.90
31991;DHT22;18508;49.386;8.370;2023-07-13T05:51:04;17.60;99.90
31991;DHT22;18508;49.386;8.370;2023-07-13T05:53:32;17.70;99.90
31991;DHT22;18508;49.386;8.370;2023-07-13T05:56:00;17.80;99.90
31991;DHT22;18508;49.386;8.370;2023-07-13T05:58:29;17.90;99.90
31991;DHT22;18508;49.386;8.370;2023-07-13T06:01:02;17.90;99.90
31991;DHT22;18508;49.386;8.370;2023-07-13T06:03:31;18.00;99.90
31991;DHT22;18508;49.386;8.370;2023-07-13T06:06:00;18.00;99.90
31991;DHT22;18508;49.386;8.370;2023-07-13T06:08:29;18.10;99.90
31991;DHT22;18508;49.386;8.370;2023-07-13T06:11:03;18.30;99.90
31991;DHT22;18508;49.386;8.370;2023-07-13T06:13:31;18.60;99.90
31991;DHT22;18508;49.386;8.370;2023-07-13T06:16:00;18.80;1.20
31991;DHT22;18508;49.386;8.370;2023-07-13T06:18:31;18.90;1.00
31991;DHT22;18508;49.386;8.370;2023-07-13T06:20:59;19.00;1.00
31991;DHT22;18508;49.386;8.370;2023-07-13T06:23:32;19.20;99.90
31991;DHT22;18508;49.386;8.370;2023-07-13T06:26:01;19.40;99.90
31991;DHT22;18508;49.386;8.370;2023-07-13T06:28:30;19.60;2.80
31991;DHT22;18508;49.386;8.370;2023-07-13T06:30:59;19.70;1.00
31991;DHT22;18508;49.386;8.370;2023-07-13T06:33:29;19.90;1.00
31991;DHT22;18508;49.386;8.370;2023-07-13T06:35:58;20.10;1.00
31991;DHT22;18508;49.386;8.370;2023-07-13T06:38:26;20.20;1.00
31991;DHT22;18508;49.386;8.370;2023-07-13T06:40:58;20.40;99.90
31991;DHT22;18508;49.386;8.370;2023-07-13T06:43:27;20.50;99.90
31991;DHT22;18508;49.386;8.370;2023-07-13T06:45:56;20.60;99.90
31991;DHT22;18508;49.386;8.370;2023-07-13T06:48:26;20.70;36.60
31991;DHT22;18508;49.386;8.370;2023-07-13T06:50:55;20.90;1.00
31991;DHT22;18508;49.386;8.370;2023-07-13T06:53:24;21.10;1.00
31991;DHT22;18508;49.386;8.370;2023-07-13T06:55:53;21.20;99.90
31991;DHT22;18508;49.386;8.370;2023-07-13T06:58:23;21.30;99.90
31991;DHT22;18508;49.386;8.370;2023-07-13T07:00:52;21.50;99.90
31991;DHT22;18508;49.386;8.370;2023-07-13T07:03:20;21.70;99.90
31991;DHT22;18508;49.386;8.370;2023-07-13T07:05:48;21.80;1.00
31991;DHT22;18508;49.386;8.370;2023-07-13T07:08:16;21.70;1.00
31991;DHT22;18508;49.386;8.370;2023-07-13T07:10:44;21.60;99.90
31991;DHT22;18508;49.386;8.370;2023-07-13T07:13:13;21.70;99.90
31991;DHT22;18508;49.386;8.370;2023-07-13T07:15:44;21.80;99.90
31991;DHT22;18508;49.386;8.370;2023-07-13T07:18:16;21.80;1.00
31991;DHT22;18508;49.386;8.370;2023-07-13T07:20:44;21.90;99.90
31991;DHT22;18508;49.386;8.370;2023-07-13T07:23:13;21.80;99.90
31991;DHT22;18508;49.386;8.370;2023-07-13T07:25:43;22.00;99.90
31991;DHT22;18508;49.386;8.370;2023-07-13T07:28:14;22.10;1.00
31991;DHT22;18508;49.386;8.370;2023-07-13T07:30:53;22.10;1.00
31991;DHT22;18508;49.386;8.370;2023-07-13T07:33:41;22.10;99.90
31991;DHT22;18508;49.386;8.370;2023-07-13T07:36:10;22.00;99.90
31991;DHT22;18508;49.386;8.370;2023-07-13T07:38:41;21.90;99.90
31991;DHT22;18508;49.386;8.370;2023-07-13T07:41:12;22.00;99.90
31991;DHT22;18508;49.386;8.370;2023-07-13T07:43:43;22.20;1.00
31991;DHT22;18508;49.386;8.370;2023-07-13T07:46:12;22.30;99.90
31991;DHT22;18508;49.386;8.370;2023-07-13T07:48:41;22.40;99.90
31991;DHT22;18508;49.386;8.370;2023-07-13T07:51:09;22.30;99.90
31991;DHT22;18508;49.386;8.370;2023-07-13T07:53:37;22.50;99.90
31991;DHT22;18508;49.386;8.370;2023-07-13T07:56:07;22.60;99.90
31991;DHT22;18508;49.386;8.370;2023-07-13T07:58:41;22.60;99.90
31991;DHT22;18508;49.386;8.370;2023-07-13T08:01:14;22.70;99.90
31991;DHT22;18508;49.386;8.370;2023-07-13T08:03:45;22.70;99.90
31991;DHT22;18508;49.386;8.370;2023-07-13T08:06:17;22.80;66.60
31991;DHT22;18508;49.386;8.370;2023-07-13T08:08:49;22.90;5.30
31991;DHT22;18508;49.386;8.370;2023-07-13T08:11:18;23.00;1.00
31991;DHT22;18508;49.386;8.370;2023-07-13T08:13:50;23.00;43.20
31991;DHT22;18508;49.386;8.370;2023-07-13T08:16:23;23.00;1.00
31991;DHT22;18508;49.386;8.370;2023-07-13T08:18:53;23.30;99.90
31991;DHT22;18508;49.386;8.370;2023-07-13T08:21:21;23.30;99.90
31991;DHT22;18508;49.386;8.370;2023-07-13T08:23:49;23.40;99.90
31991;DHT22;18508;49.386;8.370;2023-07-13T08:26:19;23.40;99.90
31991;DHT22;18508;49.386;8.370;2023-07-13T08:28:48;23.40;99.90
31991;DHT22;18508;49.386;8.370;2023-07-13T08:31:17;23.50;99.90
31991;DHT22;18508;49.386;8.370;2023-07-13T08:33:47;23.50;99.90
31991;DHT22;18508;49.386;8.370;2023-07-13T08:36:15;23.70;99.90
31991;DHT22;18508;49.386;8.370;2023-07-13T08:38:43;23.80;99.90
31991;DHT22;18508;49.386;8.370;2023-07-13T08:41:13;23.70;99.90
31991;DHT22;18508;49.386;8.370;2023-07-13T08:43:45;23.80;99.90
31991;DHT22;18508;49.386;8.370;2023-07-13T08:46:20;23.90;92.70
31991;DHT22;18508;49.386;8.370;2023-07-13T08:48:56;23.90;25.00
31991;DHT22;18508;49.386;8.370;2023-07-13T08:51:38;23.80;99.90
31991;DHT22;18508;49.386;8.370;2023-07-13T08:54:16;24.10;99.90
31991;DHT22;18508;49.386;8.370;2023-07-13T08:56:48;24.30;99.90
31991;DHT22;18508;49.386;8.370;2023-07-13T08:59:23;24.40;99.90
31991;DHT22;18508;49.386;8.370;2023-07-13T09:02:08;24.60;99.90
31991;DHT22;18508;49.386;8.370;2023-07-13T09:04:50;24.60;99.90
31991;DHT22;18508;49.386;8.370;2023-07-13T09:07:29;24.60;63.90
31991;DHT22;18508;49.386;8.370;2023-07-13T09:10:08;24.60;1.00
31991;DHT22;18508;49.386;8.370;2023-07-13T09:12:47;24.60;1.00
31991;DHT22;18508;49.386;8.370;2023-07-13T09:15:26;24.70;3.20
31991;DHT22;18508;49.386;8.370;2023-07-13T09:18:02;24.80;1.00
31991;DHT22;18508;49.386;8.370;2023-07-13T09:20:35;24.70;51.70
31991;DHT22;18508;49.386;8.370;2023-07-13T09:23:12;24.90;58.20
31991;DHT22;18508;49.386;8.370;2023-07-13T09:25:42;24.90;22.60
31991;DHT22;18508;49.386;8.370;2023-07-13T09:28:17;25.10;1.00
31991;DHT22;18508;49.386;8.370;2023-07-13T09:30:49;25.20;1.00
31991;DHT22;18508;49.386;8.370;2023-07-13T09:33:18;25.30;1.00
31991;DHT22;18508;49.386;8.370;2023-07-13T09:35:48;25.30;1.00
31991;DHT22;18508;49.386;8.370;2023-07-13T09:38:18;25.20;1.00
31991;DHT22;18508;49.386;8.370;2023-07-13T09:40:58;25.10;1.00
31991;DHT22;18508;49.386;8.370;2023-07-13T09:43:28;25.10;1.00
31991;DHT22;18508;49.386;8.370;2023-07-13T09:45:56;25.10;1.00
31991;DHT22;18508;49.386;8.370;2023-07-13T09:48:34;25.30;1.00
31991;DHT22;18508;49.386;8.370;2023-07-13T09:51:13;25.30;1.00
31991;DHT22;18508;49.386;8.370;2023-07-13T09:53:42;25.50;1.00
31991;DHT22;18508;49.386;8.370;2023-07-13T09:56:21;25.60;1.00
31991;DHT22;18508;49.386;8.370;2023-07-13T09:58:50;26.00;1.00
31991;DHT22;18508;49.386;8.370;2023-07-13T10:01:33;26.10;1.00
31991;DHT22;18508;49.386;8.370;2023-07-13T10:04:10;26.50;99.90
31991;DHT22;18508;49.386;8.370;2023-07-13T10:06:41;26.80;99.90
31991;DHT22;18508;49.386;8.370;2023-07-13T10:09:13;26.90;99.90
31991;DHT22;18508;49.386;8.370;2023-07-13T10:11:42;26.80;47.70
31991;DHT22;18508;49.386;8.370;2023-07-13T10:14:14;26.80;1.00
31991;DHT22;18508;49.386;8.370;2023-07-13T10:16:45;26.80;1.00
31991;DHT22;18508;49.386;8.370;2023-07-13T10:19:17;26.70;1.00
31991;DHT22;18508;49.386;8.370;2023-07-13T10:21:54;26.80;1.00
31991;DHT22;18508;49.386;8.370;2023-07-13T10:24:26;26.60;1.00
31991;DHT22;18508;49.386;8.370;2023-07-13T10:26:57;26.50;1.00
31991;DHT22;18508;49.386;8.370;2023-07-13T10:29:27;26.40;1.00
31991;DHT22;18508;49.386;8.370;2023-07-13T10:31:58;26.30;1.00
31991;DHT22;18508;49.386;8.370;2023-07-13T10:34:27;26.10;1.00
31991;DHT22;18508;49.386;8.370;2023-07-13T10:37:00;26.00;1.00
31991;DHT22;18508;49.386;8.370;2023-07-13T10:39:30;25.60;99.90
31991;DHT22;18508;49.386;8.370;2023-07-13T10:42:00;25.60;99.90
31991;DHT22;18508;49.386;8.370;2023-07-13T10:44:31;25.70;99.90
31991;DHT22;18508;49.386;8.370;2023-07-13T10:47:02;25.60;1.00
31991;DHT22;18508;49.386;8.370;2023-07-13T10:49:34;25.60;1.00
31991;DHT22;18508;49.386;8.370;2023-07-13T10:52:20;25.50;1.00
31991;DHT22;18508;49.386;8.370;2023-07-13T10:55:11;25.40;1.00
31991;DHT22;18508;49.386;8.370;2023-07-13T10:58:00;25.20;1.00
31991;DHT22;18508;49.386;8.370;2023-07-13T11:00:32;25.20;1.00
31991;DHT22;18508;49.386;8.370;2023-07-13T11:03:13;25.40;1.00
31991;DHT22;18508;49.386;8.370;2023-07-13T11:05:42;25.70;1.00
31991;DHT22;18508;49.386;8.370;2023-07-13T11:08:31;25.90;99.90
31991;DHT22;18508;49.386;8.370;2023-07-13T11:11:00;26.10;99.90
31991;DHT22;18508;49.386;8.370;2023-07-13T11:13:57;26.20;99.90
31991;DHT22;18508;49.386;8.370;2023-07-13T11:16:37;26.20;99.90
31991;DHT22;18508;49.386;8.370;2023-07-13T11:19:28;26.10;99.90
31991;DHT22;18508;49.386;8.370;2023-07-13T11:22:17;26.00;99.90
31991;DHT22;18508;49.386;8.370;2023-07-13T11:24:59;26.20;99.90
31991;DHT22;18508;49.386;8.370;2023-07-13T11:27:39;26.50;99.90
31991;DHT22;18508;49.386;8.370;2023-07-13T11:30:23;26.90;99.90
31991;DHT22;18508;49.386;8.370;2023-07-13T11:33:03;27.30;99.90
31991;DHT22;18508;49.386;8.370;2023-07-13T11:35:36;27.10;99.90
31991;DHT22;18508;49.386;8.370;2023-07-13T11:38:13;27.10;99.90
31991;DHT22;18508;49.386;8.370;2023-07-13T11:40:46;26.90;99.90
31991;DHT22;18508;49.386;8.370;2023-07-13T11:43:22;26.40;99.90
31991;DHT22;18508;49.386;8.370;2023-07-13T11:45:51;26.50;99.90
31991;DHT22;18508;49.386;8.370;2023-07-13T11:48:22;26.50;99.90
31991;DHT22;18508;49.386;8.370;2023-07-13T11:50:56;26.70;99.90
31991;DHT22;18508;49.386;8.370;2023-07-13T11:53:40;26.40;99.90
31991;DHT22;18508;49.386;8.370;2023-07-13T11:56:10;26.10;99.90
31991;DHT22;18508;49.386;8.370;2023-07-13T11:58:39;26.20;99.90
31991;DHT22;18508;49.386;8.370;2023-07-13T12:01:16;26.60;99.90
31991;DHT22;18508;49.386;8.370;2023-07-13T12:03:47;26.90;99.90
31991;DHT22;18508;49.386;8.370;2023-07-13T12:06:27;27.20;99.90
31991;DHT22;18508;49.386;8.370;2023-07-13T12:08:57;27.20;99.90
31991;DHT22;18508;49.386;8.370;2023-07-13T12:11:29;27.20;99.90
31991;DHT22;18508;49.386;8.370;2023-07-13T12:13:57;27.40;99.90
31991;DHT22;18508;49.386;8.370;2023-07-13T12:16:29;27.30;99.90
31991;DHT22;18508;49.386;8.370;2023-07-13T12:19:00;27.50;44.30
31991;DHT22;18508;49.386;8.370;2023-07-13T12:21:32;27.30;31.00
31991;DHT22;18508;49.386;8.370;2023-07-13T12:24:01;27.20;57.40
31991;DHT22;18508;49.386;8.370;2023-07-13T12:26:32;27.20;48.70
31991;DHT22;18508;49.386;8.370;2023-07-13T12:29:04;27.10;72.30
31991;DHT22;18508;49.386;8.370;2023-07-13T12:31:34;27.00;74.60
31991;DHT22;18508;49.386;8.370;2023-07-13T12:34:07;26.50;98.60
31991;DHT22;18508;49.386;8.370;2023-07-13T12:36:38;26.10;99.90
31991;DHT22;18508;49.386;8.370;2023-07-13T12:39:15;26.00;99.90
31991;DHT22;18508;49.386;8.370;2023-07-13T12:41:45;26.10;99.90
31991;DHT22;18508;49.386;8.370;2023-07-13T12:44:15;26.50;99.90
31991;DHT22;18508;49.386;8.370;2023-07-13T12:46:57;26.70;99.90
31991;DHT22;18508;49.386;8.370;2023-07-13T12:49:29;27.20;99.90
31991;DHT22;18508;49.386;8.370;2023-07-13T12:52:00;27.10;99.90
31991;DHT22;18508;49.386;8.370;2023-07-13T12:54:30;27.40;99.90
31991;DHT22;18508;49.386;8.370;2023-07-13T12:57:00;26.90;99.90
31991;DHT22;18508;49.386;8.370;2023-07-13T12:59:32;26.80;99.90
31991;DHT22;18508;49.386;8.370;2023-07-13T13:02:22;26.80;96.20
31991;DHT22;18508;49.386;8.370;2023-07-13T13:04:55;26.60;80.20
31991;DHT22;18508;49.386;8.370;2023-07-13T13:07:25;26.40;99.90
31991;DHT22;18508;49.386;8.370;2023-07-13T13:09:55;26.60;99.90
31991;DHT22;18508;49.386;8.370;2023-07-13T13:12:25;26.80;99.90
31991;DHT22;18508;49.386;8.370;2023-07-13T13:14:56;26.70;99.90
31991;DHT22;18508;49.386;8.370;2023-07-13T13:17:29;26.50;99.90
31991;DHT22;18508;49.386;8.370;2023-07-13T13:20:00;26.30;99.90
31991;DHT22;18508;49.386;8.370;2023-07-13T13:22:29;26.20;99.90
31991;DHT22;18508;49.386;8.370;2023-07-13T13:24:59;25.90;99.90
31991;DHT22;18508;49.386;8.370;2023-07-13T13:27:31;26.10;99.90
31991;DHT22;18508;49.386;8.370;2023-07-13T13:30:00;26.50;99.90
31991;DHT22;18508;49.386;8.370;2023-07-13T13:32:31;26.80;99.90
31991;DHT22;18508;49.386;8.370;2023-07-13T13:34:59;27.10;99.90
31991;DHT22;18508;49.386;8.370;2023-07-13T13:37:28;26.80;99.90
31991;DHT22;18508;49.386;8.370;2023-07-13T13:39:56;27.10;99.90
31991;DHT22;18508;49.386;8.370;2023-07-13T13:42:36;27.10;99.90
31991;DHT22;18508;49.386;8.370;2023-07-13T13:45:06;27.30;99.90
31991;DHT22;18508;49.386;8.370;2023-07-13T13:47:35;27.50;94.40
31991;DHT22;18508;49.386;8.370;2023-07-13T13:50:12;27.30;78.30
31991;DHT22;18508;49.386;8.370;2023-07-13T13:52:42;27.10;96.10
31991;DHT22;18508;49.386;8.370;2023-07-13T13:55:13;27.40;99.90
31991;DHT22;18508;49.386;8.370;2023-07-13T13:57:45;27.80;87.90
31991;DHT22;18508;49.386;8.370;2023-07-13T14:00:15;28.00;48.00
31991;DHT22;18508;49.386;8.370;2023-07-13T14:02:46;27.60;10.30
31991;DHT22;18508;49.386;8.370;2023-07-13T14:05:17;27.40;17.60
31991;DHT22;18508;49.386;8.370;2023-07-13T14:07:46;27.20;36.90
31991;DHT22;18508;49.386;8.370;2023-07-13T14:10:18;26.70;43.10
31991;DHT22;18508;49.386;8.370;2023-07-13T14:12:52;26.60;93.70
31991;DHT22;18508;49.386;8.370;2023-07-13T14:15:23;26.50;99.90
31991;DHT22;18508;49.386;8.370;2023-07-13T14:17:51;26.30;99.90
31991;DHT22;18508;49.386;8.370;2023-07-13T14:20:22;26.20;99.90
31991;DHT22;18508;49.386;8.370;2023-07-13T14:22:51;26.30;99.90
31991;DHT22;18508;49.386;8.370;2023-07-13T14:25:22;26.40;99.90
31991;DHT22;18508;49.386;8.370;2023-07-13T14:27:54;26.20;99.90
31991;DHT22;18508;49.386;8.370;2023-07-13T14:30:26;26.00;99.90
31991;DHT22;18508;49.386;8.370;2023-07-13T14:32:54;26.00;99.90
31991;DHT22;18508;49.386;8.370;2023-07-13T14:35:23;26.00;99.90
31991;DHT22;18508;49.386;8.370;2023-07-13T14:37:51;25.80;99.90
31991;DHT22;18508;49.386;8.370;2023-07-13T14:40:32;25.90;99.90
31991;DHT22;18508;49.386;8.370;2023-07-13T14:43:01;26.00;99.90
31991;DHT22;18508;49.386;8.370;2023-07-13T14:45:30;26.00;99.90
31991;DHT22;18508;49.386;8.370;2023-07-13T14:47:59;26.10;99.90
31991;DHT22;18508;49.386;8.370;2023-07-13T14:50:31;26.50;99.90
31991;DHT22;18508;49.386;8.370;2023-07-13T14:53:02;26.80;99.90
31991;DHT22;18508;49.386;8.370;2023-07-13T14:55:30;27.00;99.90
31991;DHT22;18508;49.386;8.370;2023-07-13T14:58:00;27.20;99.90
31991;DHT22;18508;49.386;8.370;2023-07-13T15:00:28;27.10;99.90
31991;DHT22;18508;49.386;8.370;2023-07-13T15:02:59;27.20;43.70
31991;DHT22;18508;49.386;8.370;2023-07-13T15:05:29;27.00;56.60
31991;DHT22;18508;49.386;8.370;2023-07-13T15:08:03;27.00;1.00
31991;DHT22;18508;49.386;8.370;2023-07-13T15:10:33;27.10;1.00
31991;DHT22;18508;49.386;8.370;2023-07-13T15:13:16;27.10;75.20
31991;DHT22;18508;49.386;8.370;2023-07-13T15:15:47;26.80;1.00
31991;DHT22;18508;49.386;8.370;2023-07-13T15:18:18;26.70;12.20
31991;DHT22;18508;49.386;8.370;2023-07-13T15:20:49;26.80;23.80
31991;DHT22;18508;49.386;8.370;2023-07-13T15:23:19;27.00;31.90
31991;DHT22;18508;49.386;8.370;2023-07-13T15:25:47;26.90;28.80
31991;DHT22;18508;49.386;8.370;2023-07-13T15:28:16;27.10;21.50
31991;DHT22;18508;49.386;8.370;2023-07-13T15:30:47;27.40;19.50
31991;DHT22;18508;49.386;8.370;2023-07-13T15:33:21;27.70;30.30
31991;DHT22;18508;49.386;8.370;2023-07-13T15:35:51;27.80;1.00
31991;DHT22;18508;49.386;8.370;2023-07-13T15:38:23;27.80;1.00
31991;DHT22;18508;49.386;8.370;2023-07-13T15:40:52;28.10;57.50
31991;DHT22;18508;49.386;8.370;2023-07-13T15:43:25;28.60;86.10
31991;DHT22;18508;49.386;8.370;2023-07-13T15:45:55;29.30;5.50
31991;DHT22;18508;49.386;8.370;2023-07-13T15:48:25;29.80;1.00
31991;DHT22;18508;49.386;8.370;2023-07-13T15:51:00;29.50;1.00
31991;DHT22;18508;49.386;8.370;2023-07-13T15:53:30;28.90;1.00
31991;DHT22;18508;49.386;8.370;2023-07-13T15:55:59;28.20;1.00
31991;DHT22;18508;49.386;8.370;2023-07-13T15:58:31;27.60;1.00
31991;DHT22;18508;49.386;8.370;2023-07-13T16:01:02;28.10;1.00
31991;DHT22;18508;49.386;8.370;2023-07-13T16:03:30;28.00;1.00
31991;DHT22;18508;49.386;8.370;2023-07-13T16:06:00;27.90;1.00
31991;DHT22;18508;49.386;8.370;2023-07-13T16:08:31;27.70;1.00
31991;DHT22;18508;49.386;8.370;2023-07-13T16:11:00;27.40;1.00